createdAt,value
2023-03-08T00:00:29.829Z,60.19
2023-03-08T00:02:58.051Z,59.88
2023-03-08T00:05:26.344Z,60.02
2023-03-08T00:07:54.587Z,59.97
2023-03-08T00:10:22.989Z,60.38
2023-03-08T00:12:50.834Z,59.88
2023-03-08T00:15:20.367Z,60.14
2023-03-08T00:17:48.421Z,60.11
2023-03-08T00:20:16.567Z,59.93
2023-03-08T00:22:44.566Z,59.69
2023-03-08T00:25:16.405Z,60.62
2023-03-08T00:27:44.405Z,60.75
2023-03-08T00:30:13.988Z,60.78
2023-03-08T00:32:43.195Z,60.85
2023-03-08T00:35:13.064Z,61.56
2023-03-08T00:37:40.873Z,61.71
2023-03-08T00:40:10.389Z,61.48
2023-03-08T00:42:38.209Z,62.06
2023-03-08T00:45:06.835Z,62.16
2023-03-08T00:47:35.467Z,61.56
2023-03-08T00:50:04.907Z,61.63
2023-03-08T00:52:32.800Z,62.01
2023-03-08T00:55:00.637Z,62.59
2023-03-08T00:57:28.503Z,62.06
2023-03-08T00:59:56.288Z,62.42
2023-03-08T01:02:24.165Z,62.59
2023-03-08T01:04:51.991Z,63.10
2023-03-08T01:07:24.036Z,63.60
2023-03-08T01:09:55.720Z,63.37
2023-03-08T01:12:25.280Z,63.27
2023-03-08T01:14:54.398Z,63.07
2023-03-08T01:17:22.262Z,63.47
2023-03-08T01:19:50.120Z,64.13
2023-03-08T01:22:19.147Z,63.99
2023-03-08T01:24:49.768Z,63.92
2023-03-08T01:27:18.105Z,63.82
2023-03-08T01:29:46.190Z,64.37
2023-03-08T01:32:14.369Z,64.17
2023-03-08T01:34:42.258Z,64.67
2023-03-08T01:37:10.123Z,64.69
2023-03-08T01:39:37.977Z,64.75
2023-03-08T01:42:07.814Z,64.64
2023-03-08T01:44:51.182Z,64.77
2023-03-08T01:47:21.010Z,64.80
2023-03-08T01:50:12.235Z,65.08
2023-03-08T01:52:46.730Z,65.49
2023-03-08T01:55:17.122Z,65.11
2023-03-08T01:57:50.705Z,64.38
2023-03-08T02:00:22.776Z,64.40
2023-03-08T02:02:55.515Z,64.53
2023-03-08T02:05:24.565Z,65.02
2023-03-08T02:07:57.602Z,65.74
2023-03-08T02:10:29.409Z,64.91
2023-03-08T02:12:58.761Z,65.22
2023-03-08T02:15:26.709Z,65.07
2023-03-08T02:17:58.020Z,64.48
2023-03-08T02:20:29.857Z,65.60
2023-03-08T02:23:08.733Z,65.53
2023-03-08T02:25:36.725Z,65.43
2023-03-08T02:28:05.486Z,65.81
2023-03-08T02:30:36.226Z,65.30
2023-03-08T02:33:05.140Z,65.10
2023-03-08T02:35:33.738Z,65.56
2023-03-08T02:38:02.894Z,66.21
2023-03-08T02:40:32.730Z,65.86
2023-03-08T02:43:00.520Z,65.35
2023-03-08T02:45:28.336Z,65.23
2023-03-08T02:47:56.162Z,65.64
2023-03-08T02:50:24.094Z,65.57
2023-03-08T02:52:52.525Z,65.92
2023-03-08T02:55:22.550Z,65.10
2023-03-08T02:57:50.489Z,65.60
2023-03-08T03:00:20.230Z,64.96
2023-03-08T03:02:48.229Z,65.19
2023-03-08T03:05:16.022Z,64.95
2023-03-08T03:07:44.875Z,65.34
2023-03-08T03:10:19.847Z,65.58
2023-03-08T03:12:49.171Z,65.56
2023-03-08T03:15:20.264Z,65.74
2023-03-08T03:17:52.707Z,65.04
2023-03-08T03:20:20.771Z,65.27
2023-03-08T03:22:48.589Z,65.62
2023-03-08T03:25:17.940Z,65.20
2023-03-08T03:27:47.337Z,65.74
2023-03-08T03:30:17.328Z,65.43
2023-03-08T03:32:45.229Z,65.18
2023-03-08T03:35:14.641Z,65.52
2023-03-08T03:37:42.549Z,64.42
2023-03-08T03:40:14.141Z,64.60
2023-03-08T03:42:44.502Z,65.10
2023-03-08T03:45:15.000Z,64.17
2023-03-08T03:47:44.414Z,63.79
2023-03-08T03:50:13.020Z,64.17
2023-03-08T03:53:03.680Z,63.88
2023-03-08T03:55:32.474Z,64.84
2023-03-08T03:58:03.263Z,65.34
2023-03-08T04:00:32.218Z,64.45
2023-03-08T04:03:13.606Z,63.66
2023-03-08T04:05:42.807Z,64.22
2023-03-08T04:08:14.080Z,64.38
2023-03-08T04:10:43.246Z,64.28
2023-03-08T04:13:12.425Z,64.24
2023-03-08T04:15:41.607Z,64.38
2023-03-08T04:18:14.070Z,63.83
2023-03-08T04:20:46.255Z,65.13
2023-03-08T04:23:15.294Z,64.17
2023-03-08T04:25:45.296Z,63.73
2023-03-08T04:28:16.100Z,64.16
2023-03-08T04:30:46.387Z,64.56
2023-03-08T04:33:16.416Z,64.16
2023-03-08T04:35:48.576Z,65.14
2023-03-08T04:38:19.067Z,65.39
2023-03-08T04:41:05.539Z,64.84
2023-03-08T04:43:47.272Z,65.04
2023-03-08T04:46:17.418Z,65.39
2023-03-08T04:48:47.037Z,65.13
2023-03-08T04:51:17.723Z,65.34
2023-03-08T04:53:47.321Z,65.04
2023-03-08T04:56:17.357Z,64.79
2023-03-08T04:58:46.412Z,65.27
2023-03-08T05:01:18.463Z,64.87
2023-03-08T05:03:49.898Z,65.21
2023-03-08T05:06:20.875Z,64.69
2023-03-08T05:08:49.525Z,64.83
2023-03-08T05:11:20.918Z,65.15
2023-03-08T05:13:48.933Z,65.32
2023-03-08T05:16:16.944Z,64.91
2023-03-08T05:18:44.889Z,64.81
2023-03-08T05:21:17.056Z,64.86
2023-03-08T05:23:47.158Z,64.96
2023-03-08T05:26:19.487Z,65.93
2023-03-08T05:28:48.778Z,65.59
2023-03-08T05:31:20.321Z,65.88
2023-03-08T05:33:51.185Z,65.36
2023-03-08T05:36:26.764Z,64.92
2023-03-08T05:38:57.825Z,65.50
2023-03-08T05:41:32.571Z,65.36
2023-03-08T05:44:02.115Z,64.92
2023-03-08T05:46:34.100Z,65.20
2023-03-08T05:49:03.871Z,64.74
2023-03-08T05:51:35.876Z,65.15
2023-03-08T05:54:04.125Z,64.82
2023-03-08T05:56:35.146Z,65.29
2023-03-08T05:59:12.167Z,65.39
2023-03-08T06:01:40.261Z,65.33
2023-03-08T06:04:18.363Z,65.60
2023-03-08T06:06:51.115Z,65.89
2023-03-08T06:09:21.979Z,65.25
2023-03-08T06:11:50.085Z,65.42
2023-03-08T06:14:19.513Z,65.42
2023-03-08T06:16:48.554Z,66.04
2023-03-08T06:19:18.059Z,65.51
2023-03-08T06:21:47.729Z,65.35
2023-03-08T06:24:17.090Z,65.86
2023-03-08T06:26:45.520Z,65.56
2023-03-08T06:29:13.423Z,66.35
2023-03-08T06:31:41.428Z,65.90
2023-03-08T06:34:09.358Z,66.10
2023-03-08T06:36:37.798Z,66.10
2023-03-08T06:39:07.114Z,66.89
2023-03-08T06:41:36.842Z,65.95
2023-03-08T06:44:06.882Z,66.63
2023-03-08T06:46:34.704Z,66.61
2023-03-08T06:49:03.290Z,66.95
2023-03-08T06:51:32.864Z,66.70
2023-03-08T06:54:00.745Z,66.14
2023-03-08T06:56:29.407Z,66.64
2023-03-08T06:58:58.599Z,66.11
2023-03-08T07:01:26.452Z,67.03
2023-03-08T07:03:54.430Z,67.08
2023-03-08T07:06:22.309Z,66.94
2023-03-08T07:08:50.181Z,67.18
2023-03-08T07:11:18.050Z,67.61
2023-03-08T07:13:46.357Z,67.41
2023-03-08T07:16:15.781Z,68.30
2023-03-08T07:18:43.610Z,67.46
2023-03-08T07:21:12.211Z,68.13
2023-03-08T07:23:40.064Z,67.93
2023-03-08T07:26:08.746Z,67.91
2023-03-08T07:28:36.993Z,69.19
2023-03-08T07:31:05.675Z,68.27
2023-03-08T07:33:35.025Z,69.10
2023-03-08T07:36:03.118Z,68.11
2023-03-08T07:38:31.234Z,68.88
2023-03-08T07:40:59.318Z,68.96
2023-03-08T07:43:29.023Z,70.33
2023-03-08T07:46:06.073Z,70.10
2023-03-08T07:48:35.301Z,72.33
2023-03-08T07:51:06.456Z,72.09
2023-03-08T07:53:35.088Z,72.13
2023-03-08T07:56:03.224Z,73.25
2023-03-08T07:58:31.475Z,74.03
2023-03-08T08:00:59.354Z,74.60
2023-03-08T08:03:27.300Z,75.37
2023-03-08T08:05:56.602Z,76.41
2023-03-08T08:08:24.434Z,76.31
2023-03-08T08:10:52.183Z,77.71
2023-03-08T08:13:20.588Z,77.42
2023-03-08T08:15:48.620Z,76.72
2023-03-08T08:18:16.582Z,77.74
2023-03-08T08:20:44.488Z,77.46
2023-03-08T08:23:13.721Z,77.01
2023-03-08T08:25:41.553Z,77.26
2023-03-08T08:28:09.384Z,78.48
2023-03-08T08:30:37.350Z,78.42
2023-03-08T08:33:06.207Z,78.07
2023-03-08T08:35:42.714Z,77.58
2023-03-08T08:38:11.630Z,77.30
2023-03-08T08:40:40.842Z,77.27
2023-03-08T08:43:08.880Z,77.58
2023-03-08T08:45:37.192Z,78.25
2023-03-08T08:48:05.876Z,78.91
2023-03-08T08:50:33.818Z,78.73
2023-03-08T08:53:02.011Z,79.40
2023-03-08T08:55:30.023Z,79.08
2023-03-08T08:58:20.359Z,79.87
2023-03-08T09:00:48.280Z,79.31
2023-03-08T09:03:16.159Z,79.88
2023-03-08T09:05:45.727Z,78.55
2023-03-08T09:08:14.034Z,78.94
2023-03-08T09:10:42.112Z,78.30
2023-03-08T09:13:09.918Z,79.40
2023-03-08T09:15:39.129Z,79.28
2023-03-08T09:18:06.989Z,79.17
2023-03-08T09:20:34.824Z,79.02
2023-03-08T09:23:03.104Z,80.26
2023-03-08T09:25:31.073Z,81.14
2023-03-08T09:27:58.825Z,79.61
2023-03-08T09:30:26.637Z,80.25
2023-03-08T09:32:56.643Z,79.68
2023-03-08T09:35:24.769Z,80.66
2023-03-08T09:37:54.158Z,80.88
2023-03-08T09:40:27.246Z,80.61
2023-03-08T09:42:59.345Z,81.26
2023-03-08T09:45:28.489Z,80.14
2023-03-08T09:48:04.908Z,80.09
2023-03-08T09:50:45.343Z,79.74
2023-03-08T09:53:22.086Z,79.40
2023-03-08T09:55:53.986Z,79.40
2023-03-08T09:58:32.086Z,79.75
2023-03-08T10:01:04.340Z,80.43
2023-03-08T10:04:08.864Z,79.73
2023-03-08T10:06:43.260Z,81.05
2023-03-08T10:09:24.930Z,81.55
2023-03-08T10:11:58.596Z,81.55
2023-03-08T10:14:31.620Z,82.38
2023-03-08T10:17:04.655Z,83.00
2023-03-08T10:19:39.710Z,82.79
2023-03-08T10:22:17.666Z,83.20
2023-03-08T10:24:53.010Z,83.27
2023-03-08T10:27:23.614Z,83.84
2023-03-08T10:29:53.245Z,84.14
2023-03-08T10:32:22.119Z,84.72
2023-03-08T10:34:51.575Z,85.53
2023-03-08T10:37:21.741Z,84.72
2023-03-08T10:39:53.337Z,85.84
2023-03-08T10:42:23.629Z,85.58
2023-03-08T10:44:56.855Z,85.82
2023-03-08T10:47:26.521Z,86.17
2023-03-08T10:50:16.542Z,85.97
2023-03-08T10:52:45.362Z,85.47
2023-03-08T10:55:15.529Z,85.13
2023-03-08T10:57:49.799Z,84.22
2023-03-08T11:00:30.267Z,83.98
2023-03-08T11:03:13.545Z,84.00
2023-03-08T11:05:53.062Z,83.29
2023-03-08T11:08:23.377Z,83.04
2023-03-08T11:11:01.445Z,83.32
2023-03-08T11:13:32.985Z,81.98
2023-03-08T11:16:09.772Z,81.40
2023-03-08T11:18:50.141Z,81.43
2023-03-08T11:21:27.998Z,81.32
2023-03-08T11:24:06.062Z,81.57
2023-03-08T11:26:40.450Z,81.13
2023-03-08T11:29:19.028Z,80.68
2023-03-08T11:32:00.382Z,80.65
2023-03-08T11:34:47.000Z,80.74
2023-03-08T11:37:25.817Z,79.95
2023-03-08T11:40:02.709Z,79.73
2023-03-08T11:42:40.925Z,79.43
2023-03-08T11:45:21.164Z,79.07
2023-03-08T11:48:24.965Z,79.05
2023-03-08T11:50:58.803Z,79.05
2023-03-08T11:53:43.793Z,78.57
2023-03-08T11:56:27.786Z,78.33
2023-03-08T11:59:01.929Z,78.42
2023-03-08T12:01:37.022Z,78.34
2023-03-08T12:04:12.510Z,78.37
2023-03-08T12:06:43.788Z,78.18
2023-03-08T12:09:23.752Z,77.93
2023-03-08T12:11:57.995Z,77.45
2023-03-08T12:14:31.368Z,76.99
2023-03-08T12:17:06.466Z,77.21
2023-03-08T12:20:09.132Z,76.91
2023-03-08T12:22:47.025Z,76.30
2023-03-08T12:25:27.621Z,75.94
2023-03-08T12:28:00.628Z,76.01
2023-03-08T12:30:40.874Z,75.53
2023-03-08T12:33:13.766Z,75.36
2023-03-08T12:35:52.698Z,75.70
2023-03-08T12:38:32.504Z,75.35
2023-03-08T12:41:02.519Z,75.05
2023-03-08T12:43:32.345Z,74.84
2023-03-08T12:46:07.074Z,74.84
2023-03-08T12:48:37.675Z,74.68
2023-03-08T12:51:20.670Z,75.15
2023-03-08T12:53:59.677Z,75.23
2023-03-08T12:56:32.512Z,75.33
2023-03-08T12:59:02.703Z,75.80
2023-03-08T13:01:39.567Z,75.30
2023-03-08T13:04:39.192Z,75.32
2023-03-08T13:07:22.385Z,74.83
2023-03-08T13:09:59.351Z,75.15
2023-03-08T13:12:37.915Z,75.94
2023-03-08T13:15:26.669Z,76.67
2023-03-08T13:18:03.844Z,77.41
2023-03-08T13:20:50.987Z,78.53
2023-03-08T13:23:29.678Z,80.84
2023-03-08T13:26:31.337Z,82.34
2023-03-08T13:29:13.876Z,81.43
2023-03-08T13:31:42.270Z,81.33
2023-03-08T13:34:25.781Z,80.59
2023-03-08T13:36:53.746Z,81.01
2023-03-08T13:39:24.430Z,80.65
2023-03-08T13:41:52.602Z,80.48
2023-03-08T13:44:23.791Z,79.67
2023-03-08T13:46:53.914Z,80.31
2023-03-08T13:49:25.222Z,80.17
2023-03-08T13:51:55.688Z,79.54
2023-03-08T13:54:29.725Z,79.14
2023-03-08T13:56:58.672Z,78.54
2023-03-08T13:59:28.218Z,78.24
2023-03-08T14:01:56.423Z,77.64
2023-03-08T14:04:28.157Z,77.02
2023-03-08T14:06:57.821Z,77.07
2023-03-08T14:09:26.835Z,76.97
2023-03-08T14:11:58.756Z,76.88
2023-03-08T14:14:31.899Z,77.20
2023-03-08T14:17:00.252Z,76.46
2023-03-08T14:19:30.746Z,76.65
2023-03-08T14:22:00.745Z,76.32
2023-03-08T14:24:30.510Z,75.78
2023-03-08T14:27:01.453Z,76.48
2023-03-08T14:29:32.591Z,76.67
2023-03-08T14:32:04.670Z,76.58
2023-03-08T14:34:36.115Z,76.10
2023-03-08T14:37:07.522Z,75.18
2023-03-08T14:39:38.359Z,75.88
2023-03-08T14:42:12.206Z,75.82
2023-03-08T14:44:41.612Z,75.75
2023-03-08T14:47:11.665Z,76.72
2023-03-08T14:49:39.587Z,78.44
2023-03-08T14:52:20.773Z,79.52
2023-03-08T14:54:48.586Z,79.50
2023-03-08T14:57:19.423Z,79.86
2023-03-08T14:59:49.461Z,80.13
2023-03-08T15:02:18.678Z,79.90
2023-03-08T15:04:47.087Z,80.09
2023-03-08T15:07:19.245Z,81.77
2023-03-08T15:09:48.133Z,82.05
2023-03-08T15:12:16.013Z,82.81
2023-03-08T15:14:43.822Z,83.05
2023-03-08T15:17:13.037Z,82.74
2023-03-08T15:19:40.971Z,82.95
2023-03-08T15:22:08.829Z,82.68
2023-03-08T15:24:36.610Z,82.78
2023-03-08T15:27:04.741Z,82.52
2023-03-08T15:29:36.820Z,82.97
2023-03-08T15:32:04.675Z,83.02
2023-03-08T15:34:34.969Z,83.44
2023-03-08T15:37:02.790Z,83.55
2023-03-08T15:39:30.828Z,83.74
2023-03-08T15:41:58.703Z,84.62
2023-03-08T15:44:26.570Z,85.99
2023-03-08T15:46:54.860Z,85.91
2023-03-08T15:49:22.697Z,85.75
2023-03-08T15:51:51.945Z,85.28
2023-03-08T15:54:19.765Z,85.18
2023-03-08T15:56:47.574Z,84.76
2023-03-08T15:59:15.436Z,84.61
2023-03-08T16:01:43.314Z,84.39
2023-03-08T16:04:11.127Z,83.06
2023-03-08T16:06:38.934Z,82.90
2023-03-08T16:09:08.073Z,82.86
2023-03-08T16:11:35.900Z,83.18
2023-03-08T16:14:03.671Z,84.26
2023-03-08T16:16:44.503Z,85.86
2023-03-08T16:19:12.989Z,86.48
2023-03-08T16:21:40.833Z,87.00
2023-03-08T16:24:11.428Z,87.87
2023-03-08T16:26:39.293Z,88.11
2023-03-08T16:29:07.070Z,88.44
2023-03-08T16:31:35.724Z,88.42
2023-03-08T16:34:04.458Z,89.24
2023-03-08T16:36:32.303Z,89.86
2023-03-08T16:39:00.231Z,90.90
2023-03-08T16:41:30.045Z,92.17
2023-03-08T16:43:58.230Z,92.64
2023-03-08T16:46:26.230Z,93.27
2023-03-08T16:48:55.111Z,93.62
2023-03-08T16:51:28.090Z,93.67
2023-03-08T16:53:56.009Z,93.28
2023-03-08T16:56:25.858Z,93.23
2023-03-08T16:58:57.156Z,93.08
2023-03-08T17:01:26.487Z,93.21
2023-03-08T17:03:55.846Z,93.17
2023-03-08T17:06:27.317Z,93.14
2023-03-08T17:08:55.396Z,93.09
2023-03-08T17:11:25.504Z,92.77
2023-03-08T17:13:56.273Z,92.76
2023-03-08T17:16:26.894Z,92.30
2023-03-08T17:18:55.395Z,92.70
2023-03-08T17:21:24.060Z,92.22
2023-03-08T17:23:53.442Z,92.50
2023-03-08T17:26:22.973Z,92.28
2023-03-08T17:28:51.431Z,91.96
2023-03-08T17:31:23.051Z,91.82
2023-03-08T17:33:51.110Z,90.69
2023-03-08T17:36:19.937Z,91.34
2023-03-08T17:38:47.810Z,91.73
2023-03-08T17:41:17.080Z,92.15
2023-03-08T17:43:44.914Z,92.97
2023-03-08T17:46:14.531Z,93.06
2023-03-08T17:48:44.127Z,93.06
2023-03-08T17:51:14.386Z,92.61
2023-03-08T17:53:42.779Z,92.60
2023-03-08T17:56:13.255Z,92.21
2023-03-08T17:58:41.812Z,92.32
2023-03-08T18:01:11.945Z,92.25
2023-03-08T18:03:40.129Z,92.21
2023-03-08T18:06:26.350Z,91.97
2023-03-08T18:08:54.253Z,91.77
2023-03-08T18:11:22.458Z,91.29
2023-03-08T18:13:51.335Z,90.99
2023-03-08T18:16:19.821Z,91.20
2023-03-08T18:18:49.681Z,90.70
2023-03-08T18:21:20.041Z,90.42
2023-03-08T18:23:47.898Z,89.96
2023-03-08T18:26:19.462Z,90.03
2023-03-08T18:28:47.454Z,90.12
2023-03-08T18:31:17.749Z,90.00
2023-03-08T18:33:46.094Z,89.93
2023-03-08T18:36:14.019Z,90.33
2023-03-08T18:38:44.079Z,90.95
2023-03-08T18:41:13.677Z,90.74
2023-03-08T18:43:41.617Z,90.70
2023-03-08T18:46:12.035Z,90.50
2023-03-08T18:48:40.413Z,90.92
2023-03-08T18:51:08.675Z,90.61
2023-03-08T18:53:37.152Z,90.25
2023-03-08T18:56:07.158Z,89.85
2023-03-08T18:58:34.981Z,89.89
2023-03-08T19:01:03.039Z,89.28
2023-03-08T19:03:31.974Z,89.60
2023-03-08T19:06:02.889Z,89.56
2023-03-08T19:08:30.761Z,89.31
2023-03-08T19:10:58.729Z,89.71
2023-03-08T19:13:27.955Z,89.97
2023-03-08T19:15:56.144Z,90.50
2023-03-08T19:18:24.178Z,90.35
2023-03-08T19:20:52.108Z,91.25
2023-03-08T19:23:19.964Z,92.22
2023-03-08T19:26:12.211Z,92.67
2023-03-08T19:28:41.312Z,94.28
2023-03-08T19:31:17.509Z,94.79
2023-03-08T19:33:49.669Z,95.28
2023-03-08T19:36:17.517Z,95.78
2023-03-08T19:38:45.350Z,96.42
2023-03-08T19:41:14.005Z,97.19
2023-03-08T19:43:43.583Z,97.58
2023-03-08T19:46:11.521Z,98.37
2023-03-08T19:48:39.390Z,98.66
2023-03-08T19:51:07.261Z,98.50
2023-03-08T19:53:35.037Z,99.58
2023-03-08T19:56:02.894Z,99.67
2023-03-08T19:58:30.716Z,99.66
2023-03-08T20:01:05.337Z,99.36
2023-03-08T20:03:33.225Z,99.67
2023-03-08T20:06:01.808Z,100.00
2023-03-08T20:08:29.697Z,100.00
2023-03-08T20:10:57.696Z,100.00
2023-03-08T20:13:25.635Z,100.00
2023-03-08T20:15:53.458Z,100.00
2023-03-08T20:18:22.749Z,100.00
2023-03-08T20:20:51.365Z,100.00
2023-03-08T20:23:19.215Z,100.00
2023-03-08T20:25:47.042Z,100.00
2023-03-08T20:28:14.847Z,100.00
2023-03-08T20:30:42.728Z,100.00
2023-03-08T20:33:11.342Z,100.00
2023-03-08T20:35:41.144Z,100.00
2023-03-08T20:38:09.027Z,100.00
2023-03-08T20:40:39.317Z,100.00
2023-03-08T20:43:10.895Z,100.00
2023-03-08T20:45:40.212Z,100.00
2023-03-08T20:48:08.042Z,100.00
2023-03-08T20:50:35.932Z,100.00
2023-03-08T20:53:05.172Z,100.00
2023-03-08T20:55:33.022Z,100.00
2023-03-08T20:58:01.279Z,100.00
2023-03-08T21:00:29.098Z,100.00
2023-03-08T21:02:56.928Z,100.00
2023-03-08T21:05:25.216Z,100.00
2023-03-08T21:07:53.109Z,100.00
2023-03-08T21:10:22.444Z,100.00
2023-03-08T21:12:50.382Z,100.00
2023-03-08T21:15:18.335Z,100.00
2023-03-08T21:17:46.218Z,100.00
2023-03-08T21:20:14.102Z,100.00
2023-03-08T21:22:41.965Z,100.00
2023-03-08T21:25:10.901Z,100.00
2023-03-08T21:27:40.060Z,100.00
2023-03-08T21:30:09.223Z,100.00
2023-03-08T21:32:37.240Z,100.00
2023-03-08T21:35:05.749Z,100.00
2023-03-08T21:37:33.571Z,100.00
2023-03-08T21:40:01.373Z,100.00
2023-03-08T21:42:29.638Z,100.00
2023-03-08T21:44:58.812Z,100.00
2023-03-08T21:47:26.666Z,100.00
2023-03-08T21:49:54.493Z,100.00
2023-03-08T21:52:22.394Z,100.00
2023-03-08T21:54:50.245Z,100.00
2023-03-08T21:57:18.110Z,100.00
2023-03-08T21:59:46.372Z,100.00
2023-03-08T22:02:15.561Z,100.00
2023-03-08T22:04:43.403Z,100.00
2023-03-08T22:07:11.695Z,100.00
2023-03-08T22:09:39.527Z,100.00
2023-03-08T22:12:07.954Z,100.00
2023-03-08T22:14:35.877Z,100.00
2023-03-08T22:17:03.728Z,100.00
2023-03-08T22:19:32.953Z,100.00
2023-03-08T22:22:00.900Z,100.00
2023-03-08T22:24:28.834Z,100.00
2023-03-08T22:26:56.652Z,100.00
2023-03-08T22:29:24.453Z,100.00
2023-03-08T22:31:52.348Z,100.00
2023-03-08T22:34:20.174Z,100.00
2023-03-08T22:36:49.578Z,100.00
2023-03-08T22:39:17.385Z,100.00
2023-03-08T22:41:45.236Z,100.00
2023-03-08T22:44:14.340Z,100.00
2023-03-08T22:46:42.367Z,100.00
2023-03-08T22:49:11.665Z,100.00
2023-03-08T22:51:41.407Z,100.00
2023-03-08T22:54:16.182Z,100.00
2023-03-08T22:56:43.954Z,100.00
2023-03-08T22:59:11.806Z,100.00
2023-03-08T23:01:40.830Z,100.00
2023-03-08T23:04:11.301Z,100.00
2023-03-08T23:06:39.218Z,100.00
2023-03-08T23:09:11.369Z,100.00
2023-03-08T23:11:39.744Z,100.00
2023-03-08T23:14:08.612Z,100.00
2023-03-08T23:16:37.656Z,100.00
2023-03-08T23:19:05.875Z,100.00
2023-03-08T23:21:35.785Z,100.00
2023-03-08T23:24:03.634Z,100.00
2023-03-08T23:26:32.914Z,100.00
2023-03-08T23:29:03.305Z,100.00
2023-03-08T23:31:33.926Z,100.00
2023-03-08T23:34:02.831Z,100.00
2023-03-08T23:36:32.842Z,100.00
2023-03-08T23:39:03.081Z,100.00
2023-03-08T23:41:32.887Z,100.00
2023-03-08T23:44:02.402Z,100.00
2023-03-08T23:46:30.887Z,100.00
2023-03-08T23:49:01.434Z,100.00
2023-03-08T23:51:31.350Z,100.00
2023-03-08T23:54:01.610Z,100.00
2023-03-08T23:56:37.770Z,100.00
2023-03-08T23:59:08.255Z,100.00
